createdAt,value
2022-10-17T00:01:05.529Z,100722.00
2022-10-17T00:05:09.106Z,100719.34
2022-10-17T00:09:12.168Z,100726.41
2022-10-17T00:13:16.524Z,100728.16
2022-10-17T00:17:19.543Z,100719.31
2022-10-17T00:21:23.029Z,100727.25
2022-10-17T00:25:26.067Z,100721.06
2022-10-17T00:29:30.817Z,100725.50
2022-10-17T00:33:35.145Z,100737.88
2022-10-17T00:37:38.571Z,100747.56
2022-10-17T00:41:41.567Z,100744.91
2022-10-17T00:45:46.116Z,100739.56
2022-10-17T00:49:49.818Z,100741.34
2022-10-17T00:53:53.080Z,100736.91
2022-10-17T00:57:57.629Z,100740.38
2022-10-17T01:02:05.453Z,100736.84
2022-10-17T01:06:08.484Z,100730.66
2022-10-17T01:10:12.461Z,100731.56
2022-10-17T01:14:27.272Z,100726.25
2022-10-17T01:18:46.203Z,100731.50
2022-10-17T01:23:00.296Z,100721.81
2022-10-17T01:27:36.801Z,100731.50
2022-10-17T01:31:47.819Z,100729.72
2022-10-17T01:35:57.925Z,100721.75
2022-10-17T01:40:08.906Z,100727.03
2022-10-17T01:44:17.744Z,100715.56
2022-10-17T01:48:46.025Z,100706.69
2022-10-17T01:52:53.700Z,100713.75
2022-10-17T01:57:00.396Z,100702.25
2022-10-17T02:01:07.662Z,100704.91
2022-10-17T02:05:12.241Z,100711.06
2022-10-17T02:09:23.300Z,100697.78
2022-10-17T02:13:39.686Z,100703.97
2022-10-17T02:17:56.388Z,100708.41
2022-10-17T02:22:13.409Z,100707.50
2022-10-17T02:26:22.538Z,100709.28
2022-10-17T02:30:35.065Z,100711.91
2022-10-17T02:34:44.544Z,100716.28
2022-10-17T02:38:51.681Z,100715.38
2022-10-17T02:42:56.829Z,100730.38
2022-10-17T02:47:07.715Z,100725.94
2022-10-17T02:51:18.663Z,100731.19
2022-10-17T02:55:31.280Z,100733.78
2022-10-17T02:59:35.892Z,100732.91
2022-10-17T03:03:38.906Z,100738.16
2022-10-17T03:07:41.933Z,100732.88
2022-10-17T03:11:46.398Z,100728.50
2022-10-17T03:15:49.459Z,100734.66
2022-10-17T03:19:52.669Z,100748.75
2022-10-17T03:23:55.880Z,100749.59
2022-10-17T03:28:01.759Z,100750.44
2022-10-17T03:32:05.193Z,100759.25
2022-10-17T03:36:09.364Z,100768.06
2022-10-17T03:40:12.802Z,100766.22
2022-10-17T03:44:17.210Z,100766.19
2022-10-17T03:48:20.271Z,100770.59
2022-10-17T03:52:23.327Z,100773.22
2022-10-17T03:56:28.615Z,100781.97
2022-10-17T04:00:41.927Z,100779.31
2022-10-17T04:04:45.191Z,100782.84
2022-10-17T04:08:48.791Z,100779.31
2022-10-17T04:13:01.625Z,100796.97
2022-10-17T04:17:06.103Z,100794.34
2022-10-17T04:21:11.296Z,100794.34
2022-10-17T04:25:14.382Z,100789.03
2022-10-17T04:29:20.867Z,100792.50
2022-10-17T04:33:28.161Z,100795.97
2022-10-17T04:37:31.575Z,100810.06
2022-10-17T04:41:37.798Z,100813.59
2022-10-17T04:45:41.044Z,100812.72
2022-10-17T04:49:45.747Z,100820.66
2022-10-17T04:53:50.909Z,100817.06
2022-10-17T04:57:54.495Z,100824.06
2022-10-17T05:01:57.750Z,100821.44
2022-10-17T05:06:06.694Z,100831.09
2022-10-17T05:10:10.564Z,100839.03
2022-10-17T05:14:16.578Z,100850.44
2022-10-17T05:18:19.665Z,100849.56
2022-10-17T05:22:24.464Z,100853.94
2022-10-17T05:26:27.745Z,100844.22
2022-10-17T05:30:35.110Z,100853.91
2022-10-17T05:34:42.970Z,100855.66
2022-10-17T05:38:51.900Z,100871.50
2022-10-17T05:42:55.082Z,100874.13
2022-10-17T05:46:59.311Z,100878.50
2022-10-17T05:51:06.166Z,100886.44
2022-10-17T05:55:11.584Z,100892.56
2022-10-17T05:59:15.749Z,100892.53
2022-10-17T06:03:28.481Z,100894.28
2022-10-17T06:07:31.599Z,100899.53
2022-10-17T06:11:37.226Z,100908.34
2022-10-17T06:15:41.758Z,100907.50
2022-10-17T06:19:46.455Z,100910.09
2022-10-17T06:23:51.563Z,100914.53
2022-10-17T06:28:05.122Z,100915.50
2022-10-17T06:32:11.261Z,100919.00
2022-10-17T06:36:18.189Z,100924.34
2022-10-17T06:40:22.966Z,100927.00
2022-10-17T06:44:30.640Z,100936.81
2022-10-17T06:48:52.013Z,100939.59
2022-10-17T06:53:05.715Z,100942.41
2022-10-17T06:57:22.973Z,100951.38
2022-10-17T07:01:34.305Z,100958.56
2022-10-17T07:05:39.186Z,100957.78
2022-10-17T07:09:42.423Z,100963.16
2022-10-17T07:13:46.290Z,100956.22
2022-10-17T07:17:52.142Z,100957.19
2022-10-17T07:21:56.112Z,100960.81
2022-10-17T07:26:01.577Z,100955.59
2022-10-17T07:30:06.381Z,100960.13
2022-10-17T07:34:18.311Z,100955.78
2022-10-17T07:38:21.384Z,100963.84
2022-10-17T07:42:25.128Z,100971.88
2022-10-17T07:46:29.964Z,100964.88
2022-10-17T07:50:34.566Z,100970.25
2022-10-17T07:54:37.586Z,100967.66
2022-10-17T07:58:41.015Z,100968.59
2022-10-17T08:02:44.047Z,100972.19
2022-10-17T08:06:50.862Z,100965.13
2022-10-17T08:10:56.797Z,100970.50
2022-10-17T08:15:00.142Z,100975.81
2022-10-17T08:19:03.582Z,100980.31
2022-10-17T08:23:08.557Z,100979.44
2022-10-17T08:27:13.573Z,100980.31
2022-10-17T08:31:19.327Z,100980.34
2022-10-17T08:35:22.340Z,100975.06
2022-10-17T08:39:26.701Z,100970.59
2022-10-17T08:43:39.617Z,100965.28
2022-10-17T08:47:46.028Z,100970.63
2022-10-17T08:51:55.674Z,100975.00
2022-10-17T08:56:07.158Z,100974.97
2022-10-17T09:00:18.166Z,100974.09
2022-10-17T09:04:47.294Z,100974.94
2022-10-17T09:09:02.746Z,100975.75
2022-10-17T09:13:22.927Z,100971.25
2022-10-17T09:17:36.135Z,100970.28
2022-10-17T09:21:45.064Z,100966.63
2022-10-17T09:25:50.870Z,100962.16
2022-10-17T09:30:04.679Z,100966.47
2022-10-17T09:34:12.314Z,100967.22
2022-10-17T09:38:19.965Z,100965.34
2022-10-17T09:42:29.098Z,100960.75
2022-10-17T09:46:38.128Z,100963.28
2022-10-17T09:50:42.694Z,100964.03
2022-10-17T09:54:49.145Z,100959.44
2022-10-17T09:58:54.559Z,100969.91
2022-10-17T10:03:15.659Z,100966.19
2022-10-17T10:07:22.010Z,100962.41
2022-10-17T10:11:44.956Z,100954.19
2022-10-17T10:15:49.152Z,100952.19
2022-10-17T10:19:53.955Z,100954.63
2022-10-17T10:24:13.321Z,100955.25
2022-10-17T10:28:18.512Z,100940.78
2022-10-17T10:32:24.359Z,100949.50
2022-10-17T10:36:48.101Z,100940.41
2022-10-17T10:40:53.822Z,100946.47
2022-10-17T10:45:00.339Z,100936.47
2022-10-17T10:49:03.655Z,100921.97
2022-10-17T10:53:20.718Z,100923.53
2022-10-17T10:57:30.279Z,100923.28
2022-10-17T11:01:43.412Z,100921.28
2022-10-17T11:05:51.520Z,100923.75
2022-10-17T11:09:59.941Z,100914.63
2022-10-17T11:14:10.617Z,100905.53
2022-10-17T11:18:24.245Z,100908.09
2022-10-17T11:22:32.411Z,100897.22
2022-10-17T11:26:43.344Z,100896.13
2022-10-17T11:30:51.701Z,100893.25
2022-10-17T11:34:59.321Z,100885.13
2022-10-17T11:39:06.219Z,100896.56
2022-10-17T11:43:16.497Z,100885.78
2022-10-17T11:47:30.616Z,100891.97
2022-10-17T11:52:01.552Z,100886.47
2022-10-17T11:56:05.506Z,100888.03
2022-10-17T12:00:23.956Z,100888.84
2022-10-17T12:04:49.656Z,100886.09
2022-10-17T12:08:59.705Z,100874.31
2022-10-17T12:13:36.145Z,100874.22
2022-10-17T12:17:42.021Z,100875.97
2022-10-17T12:22:04.708Z,100881.25
2022-10-17T12:26:09.538Z,100877.56
2022-10-17T12:30:22.145Z,100873.03
2022-10-17T12:34:26.621Z,100868.53
2022-10-17T12:38:29.706Z,100873.81
2022-10-17T12:42:50.919Z,100867.47
2022-10-17T12:46:57.362Z,100859.31
2022-10-17T12:55:31.542Z,100859.16
2022-10-17T12:59:34.642Z,100866.25
2022-10-17T13:03:45.286Z,100847.44
2022-10-17T13:07:50.863Z,100871.69
2022-10-17T13:11:55.113Z,100866.44
2022-10-17T13:15:58.352Z,100865.53
2022-10-17T13:20:01.752Z,100859.31
2022-10-17T13:24:24.211Z,100853.00
2022-10-17T13:28:29.112Z,100853.88
2022-10-17T13:32:38.166Z,100859.16
2022-10-17T13:36:48.510Z,100847.56
2022-10-17T13:41:01.784Z,100849.28
2022-10-17T13:45:19.424Z,100852.00
2022-10-17T13:49:30.570Z,100848.50
2022-10-17T13:53:36.235Z,100849.47
2022-10-17T13:57:40.694Z,100855.78
2022-10-17T14:01:44.083Z,100861.16
2022-10-17T14:06:03.633Z,100858.50
2022-10-17T14:10:18.817Z,100861.34
2022-10-17T14:14:26.090Z,100867.66
2022-10-17T14:18:36.124Z,100863.31
2022-10-17T14:22:39.992Z,100863.34
2022-10-17T14:26:54.666Z,100868.75
2022-10-17T14:31:16.815Z,100862.59
2022-10-17T14:35:41.120Z,100865.34
2022-10-17T14:39:50.389Z,100871.69
2022-10-17T14:43:55.891Z,100864.56
2022-10-17T14:48:05.299Z,100861.06
2022-10-17T14:52:30.044Z,100865.69
2022-10-17T14:56:40.594Z,100854.22
2022-10-17T15:00:43.567Z,100856.09
2022-10-17T15:04:48.147Z,100860.72
2022-10-17T15:08:51.199Z,100859.97
2022-10-17T15:12:59.947Z,100862.78
2022-10-17T15:17:18.547Z,100862.03
2022-10-17T15:21:38.455Z,100855.91
2022-10-17T15:25:45.524Z,100859.66
2022-10-17T15:29:49.338Z,100871.34
2022-10-17T15:33:52.832Z,100863.44
2022-10-17T15:37:57.268Z,100860.91
2022-10-17T15:42:00.788Z,100863.72
2022-10-17T15:46:04.098Z,100870.13
2022-10-17T15:50:08.955Z,100872.06
2022-10-17T15:58:21.598Z,100873.25
2022-10-17T16:02:25.261Z,100875.22
2022-10-17T16:06:28.485Z,100878.94
2022-10-17T16:10:33.351Z,100888.88
2022-10-17T16:14:36.337Z,100880.16
2022-10-17T16:18:39.397Z,100877.69
2022-10-17T16:22:44.627Z,100875.91
2022-10-17T16:26:49.101Z,100881.44
2022-10-17T16:30:52.185Z,100878.81
2022-10-17T16:34:55.229Z,100886.94
2022-10-17T16:38:58.381Z,100889.72
2022-10-17T16:43:02.802Z,100883.63
2022-10-17T16:47:05.812Z,100887.28
2022-10-17T16:51:09.121Z,100894.50
2022-10-17T16:55:12.488Z,100879.44
2022-10-17T16:59:17.093Z,100881.28
2022-10-17T17:03:20.123Z,100878.72
2022-10-17T17:07:24.444Z,100880.56
2022-10-17T17:11:29.207Z,100882.41
2022-10-17T17:15:33.709Z,100876.28
2022-10-17T17:19:37.375Z,100882.63
2022-10-17T17:23:42.370Z,100864.88
2022-10-17T17:27:45.406Z,100880.94
2022-10-17T17:31:50.082Z,100873.91
2022-10-17T17:35:56.220Z,100866.84
2022-10-17T17:39:59.234Z,100866.91
2022-10-17T17:44:03.465Z,100861.59
2022-10-17T17:48:07.993Z,100883.91
2022-10-17T17:52:10.954Z,100883.94
2022-10-17T17:56:16.406Z,100883.09
2022-10-17T18:00:19.571Z,100895.59
2022-10-17T18:04:23.860Z,100895.63
2022-10-17T18:08:26.728Z,100900.13
2022-10-17T18:12:30.799Z,100891.28
2022-10-17T18:16:35.971Z,100894.84
2022-10-17T18:20:42.873Z,100883.31
2022-10-17T18:24:45.830Z,100886.09
2022-10-17T18:28:49.554Z,100884.34
2022-10-17T18:32:52.526Z,100892.41
2022-10-17T18:36:57.569Z,100905.81
2022-10-17T18:41:05.581Z,100904.06
2022-10-17T18:45:11.372Z,100906.81
2022-10-17T18:49:18.842Z,100899.75
2022-10-17T18:53:23.189Z,100898.00
2022-10-17T18:57:26.465Z,100904.28
2022-10-17T19:01:29.847Z,100910.53
2022-10-17T19:05:33.968Z,100910.56
2022-10-17T19:09:38.320Z,100910.63
2022-10-17T19:13:41.996Z,100910.66
2022-10-17T19:17:44.946Z,100901.78
2022-10-17T19:21:48.198Z,100901.81
2022-10-17T19:25:54.135Z,100898.34
2022-10-17T19:29:59.038Z,100903.72
2022-10-17T19:34:02.262Z,100897.56
2022-10-17T19:38:05.134Z,100902.00
2022-10-17T19:42:09.417Z,100903.81
2022-10-17T19:46:16.168Z,100900.28
2022-10-17T19:50:19.066Z,100902.09
2022-10-17T19:54:21.955Z,100900.38
2022-10-17T19:58:27.101Z,100896.84
2022-10-17T20:02:30.231Z,100905.78
2022-10-17T20:06:33.944Z,100901.38
2022-10-17T20:10:36.883Z,100909.38
2022-10-17T20:14:41.355Z,100904.06
2022-10-17T20:18:44.634Z,100919.19
2022-10-17T20:22:47.601Z,100913.00
2022-10-17T20:26:50.489Z,100919.25
2022-10-17T20:30:55.434Z,100921.06
2022-10-17T20:34:58.756Z,100906.00
2022-10-17T20:39:01.687Z,100899.84
2022-10-17T20:43:05.200Z,100902.59
2022-10-17T20:47:16.271Z,100907.97
2022-10-17T20:51:23.991Z,100905.38
2022-10-17T20:55:26.907Z,100908.13
2022-10-17T20:59:29.959Z,100901.94
2022-10-17T21:03:37.070Z,100901.09
2022-10-17T21:07:41.733Z,100902.03
2022-10-17T21:11:44.983Z,100902.06
2022-10-17T21:15:47.892Z,100897.66
2022-10-17T21:19:52.158Z,100901.25
2022-10-17T21:23:56.839Z,100900.38
2022-10-17T21:27:59.827Z,100901.28
2022-10-17T21:32:05.193Z,100904.84
2022-10-17T21:36:13.684Z,100908.38
2022-10-17T21:40:16.777Z,100904.00
2022-10-17T21:44:21.503Z,100904.03
2022-10-17T21:48:24.920Z,100901.38
2022-10-17T21:52:29.453Z,100909.41
2022-10-17T21:56:33.920Z,100904.97
2022-10-17T22:00:36.797Z,100892.59
2022-10-17T22:04:39.978Z,100902.31
2022-10-17T22:08:44.264Z,100889.94
2022-10-17T22:12:47.136Z,100890.81
2022-10-17T22:16:51.427Z,100894.38
2022-10-17T22:20:54.519Z,100890.88
2022-10-17T22:24:58.774Z,100884.69
2022-10-17T22:29:02.273Z,100885.59
2022-10-17T22:33:05.192Z,100887.38
2022-10-17T22:37:08.102Z,100882.03
2022-10-17T22:41:12.427Z,100890.91
2022-10-17T22:45:15.325Z,100893.56
2022-10-17T22:49:18.329Z,100889.16
2022-10-17T22:53:25.064Z,100882.97
2022-10-17T22:57:29.312Z,100887.41
2022-10-17T23:01:32.403Z,100888.31
2022-10-17T23:05:35.334Z,100888.28
2022-10-17T23:09:38.460Z,100877.69
2022-10-17T23:13:43.135Z,100876.78
2022-10-17T23:17:46.179Z,100873.28
2022-10-17T23:21:49.200Z,100866.13
2022-10-17T23:25:52.877Z,100876.75
2022-10-17T23:29:57.315Z,100877.63
2022-10-17T23:34:00.277Z,100879.38
2022-10-17T23:38:03.640Z,100880.28
2022-10-17T23:42:06.635Z,100878.50
2022-10-17T23:46:11.064Z,100872.31
2022-10-17T23:50:14.072Z,100865.22
2022-10-17T23:54:17.574Z,100866.09
2022-10-17T23:58:20.564Z,100867.84
